Hartsville, SC (29551)

9:12 PM EST on November 25, 2014 (GMT -0500)
Upper Black Creek Run | Change Station
CLOSE
Current Station
Personal Weather Station
Location: Hartsville, SC
Elevation: 257 ft
Nearby Weather Stations

Elev 257 ft 34.37 °N, 80.10 °W | Updated 10 minutes ago

Rain
Rain
57.4 °F
Feels Like 57.4 °F
N
1.1
Wind Variable Wind from ESE

Today
High -- | Low -- °F
--% Chance of Precip.
Yesterday
High -- | Low -- °F
Precip. -- in
7:03 AM 5:11 PM
Waxing Crescent, 15% visible
Pressure 30.06 in
Visibility 4.0 miles
Clouds Mostly Cloudy 300 ft
Mostly Cloudy 1100 ft
Overcast 1700 ft
Dew Point 57 °F
Humidity 98%
Rainfall 0.00 in
Snow Depth Not available.
UV 0 out of 12
Pollen 1.90 out of 12
Air Quality Not available.
Flu Activity Not available.
METAR KUDG 260155Z AUTO 04007KT 4SM BKN003 BKN011 OVC017 15/13 A3006 RMK AO1 P0003

More Conditions Fewer Conditions

Pressure 30.06 in
Visibility 4.0 miles
Clouds Mostly Cloudy 300 ft
Mostly Cloudy 1100 ft
Overcast 1700 ft
Dew Point 57 °F
Humidity 98%
Rainfall 0.00 in
Snow Depth Not available.
UV 0 out of 12
Pollen 1.90 out of 12
Air Quality Not available.
Flu Activity Not available.
METAR KUDG 260155Z AUTO 04007KT 4SM BKN003 BKN011 OVC017 15/13 A3006 RMK AO1 P0003

More Conditions Fewer Conditions

10-Day Weather Forecast

Almanac

Astronomy

Nov. 25, 2014 Rise Set
Actual Time
Civil Twilight
Nautical Twilight
Astronomical Twilight
Moon
Length of Visible Light
Length of Day
Tomorrow will be .
, % of the Moon is Illuminated

Today's Extremes

State Highs State Lows

Community

WunderPhotos

Upload Photos

1,773,642 photos uploaded!

WunderBlogs® & News

Nearby

Air Quality

  Air Quality AQ Index Pollutant
Not available.

Snow Depth

Station Depth Elevation

Earthquake Activity

City Distance Mag. Time & Date
Minimum magnitude displayed is 2.5.

Coastal Water Temperatures

Place Temperature

Nearby Weather Stations